Time;durP1;ratioP1;P1;durP2;ratioP2;P2;SDS_P1;SDS_P2;PMS_P1;PMS_P2;Temp;Humidity;BMP_temperature;BMP_pressure;BME280_temperature;BME280_humidity;BME280_pressure;Samples;Min_cycle;Max_cycle;Signal;HPM_P1;HPM_P2
2023/08/06 00:00:15;;;;;;;11.23;4.70;;;;;;;;;;5028797;28;20033;-74
2023/08/06 00:02:40;;;;;;;7.40;4.25;;;;;;;;;;5012821;28;20041;-74
2023/08/06 00:05:06;;;;;;;8.52;4.82;;;;;;;;;;5015956;28;20017;-74
2023/08/06 00:07:31;;;;;;;5.35;3.83;;;;;;;;;;5032983;28;20048;-74
2023/08/06 00:09:57;;;;;;;6.68;3.67;;;;;;;;;;5032210;28;20120;-74
2023/08/06 00:12:22;;;;;;;6.95;3.92;;;;;;;;;;5032354;28;20481;-74
2023/08/06 00:14:51;;;;;;;8.00;4.05;;;;;;;;;;5032733;28;20035;-74
2023/08/06 00:17:17;;;;;;;7.20;3.75;;;;;;;;;;5031675;28;20025;-74
2023/08/06 00:19:42;;;;;;;6.85;4.00;;;;;;;;;;5032254;28;20026;-74
2023/08/06 00:22:08;;;;;;;7.90;3.42;;;;;;;;;;5032822;28;20364;-74
2023/08/06 00:24:37;;;;;;;7.53;4.32;;;;;;;;;;5032559;28;20037;-74
2023/08/06 00:27:03;;;;;;;6.50;4.05;;;;;;;;;;5031680;28;20151;-74
2023/08/06 00:29:28;;;;;;;8.02;4.80;;;;;;;;;;5032824;28;20072;-74
2023/08/06 00:31:53;;;;;;;6.22;3.80;;;;;;;;;;5031110;28;20037;-74
2023/08/06 00:34:19;;;;;;;8.57;5.35;;;;;;;;;;5032561;28;20032;-74
2023/08/06 00:36:44;;;;;;;6.53;4.00;;;;;;;;;;5030666;28;20029;-74
2023/08/06 00:39:09;;;;;;;9.35;4.53;;;;;;;;;;5032589;28;20108;-74
2023/08/06 00:41:35;;;;;;;6.78;4.13;;;;;;;;;;5020814;28;20033;-74
2023/08/06 00:44:00;;;;;;;9.15;3.92;;;;;;;;;;5012456;28;20057;-74
2023/08/06 00:46:26;;;;;;;7.72;4.63;;;;;;;;;;5011741;28;20022;-74
2023/08/06 00:48:51;;;;;;;7.82;4.47;;;;;;;;;;4995115;28;20073;-74
2023/08/06 00:51:17;;;;;;;6.60;3.67;;;;;;;;;;5027777;28;20392;-74
2023/08/06 00:53:42;;;;;;;7.05;4.63;;;;;;;;;;5011076;28;20075;-74
2023/08/06 00:56:09;;;;;;;7.65;4.57;;;;;;;;;;5011829;28;20477;-74
2023/08/06 00:58:35;;;;;;;10.38;5.00;;;;;;;;;;5012683;28;20101;-75
2023/08/06 01:01:00;;;;;;;10.25;5.03;;;;;;;;;;5013905;28;20034;-74
2023/08/06 01:03:26;;;;;;;6.15;3.92;;;;;;;;;;5011060;28;20377;-74
2023/08/06 01:05:51;;;;;;;5.97;3.70;;;;;;;;;;5013058;28;20384;-74
2023/08/06 01:08:30;;;;;;;8.07;4.25;;;;;;;;;;5031361;28;20018;-74
2023/08/06 01:11:21;;;;;;;8.52;4.03;;;;;;;;;;5031031;28;20397;-74
2023/08/06 01:13:49;;;;;;;9.15;4.95;;;;;;;;;;5011816;28;20033;-74
2023/08/06 01:16:19;;;;;;;8.30;5.03;;;;;;;;;;5027787;28;20021;-74
2023/08/06 01:18:46;;;;;;;10.07;3.95;;;;;;;;;;5031141;28;20392;-74
2023/08/06 01:21:15;;;;;;;10.82;5.10;;;;;;;;;;5031013;28;20099;-74
2023/08/06 01:23:41;;;;;;;7.95;4.60;;;;;;;;;;5030166;28;20572;-74
2023/08/06 01:26:30;;;;;;;7.88;4.72;;;;;;;;;;5033350;28;20547;-74
2023/08/06 01:29:10;;;;;;;8.35;4.68;;;;;;;;;;5034564;28;20068;-74
2023/08/06 01:31:37;;;;;;;12.52;5.65;;;;;;;;;;5034516;28;20021;-74
2023/08/06 01:34:05;;;;;;;8.57;5.78;;;;;;;;;;5033958;28;20018;-74
2023/08/06 01:36:30;;;;;;;8.10;5.07;;;;;;;;;;5034205;28;20455;-74
2023/08/06 01:38:57;;;;;;;10.32;5.28;;;;;;;;;;5035976;28;20101;-74
2023/08/06 01:44:43;;;;;;;9.95;4.95;;;;;;;;;;5035782;28;20033;-74
2023/08/06 01:47:09;;;;;;;9.50;4.75;;;;;;;;;;5034561;28;20022;-74
2023/08/06 01:49:34;;;;;;;8.23;4.35;;;;;;;;;;5035844;28;20384;-74
2023/08/06 01:52:00;;;;;;;14.40;6.35;;;;;;;;;;5035559;28;20096;-74
2023/08/06 01:54:25;;;;;;;8.68;5.32;;;;;;;;;;5034195;28;20167;-74
2023/08/06 01:56:51;;;;;;;10.45;3.97;;;;;;;;;;5017250;28;20157;-74
2023/08/06 01:59:16;;;;;;;8.23;4.93;;;;;;;;;;5034086;28;20032;-74
2023/08/06 02:01:41;;;;;;;8.93;5.43;;;;;;;;;;5035620;28;20095;-74
2023/08/06 02:04:07;;;;;;;8.32;4.50;;;;;;;;;;5035189;28;20081;-74
2023/08/06 02:06:32;;;;;;;6.82;4.72;;;;;;;;;;5033840;28;20025;-74
2023/08/06 02:08:57;;;;;;;8.95;5.38;;;;;;;;;;5033944;28;20025;-74
2023/08/06 02:11:22;;;;;;;9.25;4.40;;;;;;;;;;5033946;28;20382;-74
2023/08/06 02:13:48;;;;;;;11.32;4.90;;;;;;;;;;5035063;28;20151;-74
2023/08/06 02:16:13;;;;;;;9.35;4.82;;;;;;;;;;5033474;28;20029;-74
2023/08/06 02:18:38;;;;;;;8.05;4.15;;;;;;;;;;5033975;28;20033;-74
2023/08/06 02:21:03;;;;;;;8.35;4.88;;;;;;;;;;5035483;28;20025;-74
2023/08/06 02:23:29;;;;;;;6.45;3.92;;;;;;;;;;5033546;28;20113;-74
2023/08/06 02:26:01;;;;;;;9.30;4.22;;;;;;;;;;5035272;28;20021;-74
2023/08/06 02:28:26;;;;;;;9.60;4.93;;;;;;;;;;5033835;28;20025;-74
2023/08/06 02:30:52;;;;;;;7.78;3.92;;;;;;;;;;5034293;28;20036;-74
2023/08/06 02:33:17;;;;;;;11.20;5.40;;;;;;;;;;5034844;28;20025;-74
2023/08/06 02:35:42;;;;;;;10.60;4.60;;;;;;;;;;5034877;28;20026;-74
2023/08/06 02:38:08;;;;;;;8.40;4.18;;;;;;;;;;5034692;28;20072;-74
2023/08/06 02:40:33;;;;;;;6.50;3.88;;;;;;;;;;5034502;28;20446;-74
2023/08/06 02:42:58;;;;;;;6.78;4.18;;;;;;;;;;5034829;28;20028;-74
2023/08/06 02:45:23;;;;;;;10.05;4.65;;;;;;;;;;5032772;28;20021;-74
2023/08/06 02:47:49;;;;;;;9.25;4.85;;;;;;;;;;5033257;28;20499;-74
2023/08/06 02:50:14;;;;;;;8.13;5.40;;;;;;;;;;5034363;28;20017;-74
2023/08/06 02:52:40;;;;;;;7.13;5.43;;;;;;;;;;5033432;28;20018;-74
2023/08/06 02:55:06;;;;;;;9.50;4.95;;;;;;;;;;5016257;28;20441;-74
2023/08/06 02:57:31;;;;;;;8.38;3.75;;;;;;;;;;5034243;28;20415;-74
2023/08/06 02:59:57;;;;;;;11.48;4.40;;;;;;;;;;5034197;28;20112;-74
2023/08/06 03:02:22;;;;;;;7.30;3.95;;;;;;;;;;5034082;28;20032;-74
2023/08/06 03:04:47;;;;;;;9.82;4.72;;;;;;;;;;5032307;28;20493;-74
2023/08/06 03:07:12;;;;;;;8.80;4.43;;;;;;;;;;5034080;28;20032;-74
2023/08/06 03:09:41;;;;;;;9.43;4.35;;;;;;;;;;5032825;28;20018;-74
2023/08/06 03:12:06;;;;;;;13.32;4.32;;;;;;;;;;5028704;28;20018;-74
2023/08/06 03:14:32;;;;;;;6.45;3.65;;;;;;;;;;5018222;28;20124;-74
2023/08/06 03:16:57;;;;;;;7.07;4.30;;;;;;;;;;5020772;28;20047;-74
2023/08/06 03:19:22;;;;;;;11.00;4.78;;;;;;;;;;5026829;28;20026;-74
2023/08/06 03:21:47;;;;;;;9.70;4.18;;;;;;;;;;5030862;28;20025;-74
2023/08/06 03:24:13;;;;;;;6.60;4.40;;;;;;;;;;5031819;28;20029;-74
2023/08/06 03:26:39;;;;;;;8.82;5.00;;;;;;;;;;5032480;28;20509;-74
2023/08/06 03:29:04;;;;;;;6.55;4.03;;;;;;;;;;5030326;28;20072;-74
2023/08/06 03:31:29;;;;;;;9.68;4.22;;;;;;;;;;5033589;28;20053;-74
2023/08/06 03:33:55;;;;;;;9.57;4.40;;;;;;;;;;5032340;28;20105;-75
2023/08/06 03:36:20;;;;;;;8.77;4.50;;;;;;;;;;5032988;28;20021;-74
2023/08/06 03:38:45;;;;;;;7.05;4.25;;;;;;;;;;5033637;28;20033;-74
2023/08/06 03:41:10;;;;;;;7.97;4.32;;;;;;;;;;5033351;28;20087;-74
2023/08/06 03:43:39;;;;;;;8.13;4.45;;;;;;;;;;5033418;28;20108;-74
2023/08/06 03:46:04;;;;;;;7.35;4.03;;;;;;;;;;5012115;28;20032;-74
2023/08/06 03:48:29;;;;;;;9.07;4.13;;;;;;;;;;5013163;28;20018;-74
2023/08/06 03:50:54;;;;;;;8.82;4.75;;;;;;;;;;5012934;28;20032;-74
2023/08/06 03:53:20;;;;;;;8.25;5.38;;;;;;;;;;5013411;28;20026;-74
2023/08/06 03:55:45;;;;;;;8.88;4.57;;;;;;;;;;5031874;28;20502;-74
2023/08/06 03:58:10;;;;;;;10.57;5.03;;;;;;;;;;5032725;28;20025;-74
2023/08/06 04:00:35;;;;;;;10.45;4.30;;;;;;;;;;5032809;28;20021;-74
2023/08/06 04:03:01;;;;;;;7.07;4.25;;;;;;;;;;5015170;28;20583;-74
2023/08/06 04:05:26;;;;;;;8.25;4.85;;;;;;;;;;5031771;28;20017;-74
2023/08/06 04:07:51;;;;;;;9.93;5.45;;;;;;;;;;5031931;28;20052;-74
2023/08/06 04:10:17;;;;;;;8.48;4.90;;;;;;;;;;5015346;28;20116;-74
2023/08/06 04:12:42;;;;;;;7.57;4.60;;;;;;;;;;5011191;28;20014;-74
2023/08/06 04:15:07;;;;;;;7.32;4.57;;;;;;;;;;5031493;28;20501;-74
2023/08/06 04:17:33;;;;;;;11.07;5.43;;;;;;;;;;5031687;28;20021;-74
2023/08/06 04:19:58;;;;;;;7.70;4.70;;;;;;;;;;5031964;28;20468;-74
2023/08/06 04:22:24;;;;;;;10.35;4.97;;;;;;;;;;5032122;28;20021;-74
2023/08/06 04:24:49;;;;;;;8.10;4.47;;;;;;;;;;5031436;28;20029;-74
2023/08/06 04:27:15;;;;;;;16.10;5.82;;;;;;;;;;5045698;22;20049;-75
2023/08/06 04:29:41;;;;;;;7.65;4.88;;;;;;;;;;5028098;28;20065;-75
2023/08/06 04:32:08;;;;;;;11.43;5.65;;;;;;;;;;5012079;28;20499;-75
2023/08/06 04:34:35;;;;;;;11.35;5.55;;;;;;;;;;5012368;28;20025;-75
2023/08/06 04:37:01;;;;;;;8.88;4.82;;;;;;;;;;5013241;28;20029;-75
2023/08/06 04:39:26;;;;;;;11.68;5.30;;;;;;;;;;4995827;28;20030;-75
2023/08/06 04:41:51;;;;;;;12.52;5.53;;;;;;;;;;4998694;28;20021;-75
2023/08/06 04:44:17;;;;;;;10.93;4.80;;;;;;;;;;5014729;28;20025;-75
2023/08/06 04:46:42;;;;;;;11.43;5.32;;;;;;;;;;5031347;28;20034;-75
2023/08/06 04:49:07;;;;;;;10.73;5.07;;;;;;;;;;5031453;28;20057;-75
2023/08/06 04:51:32;;;;;;;8.35;5.05;;;;;;;;;;5014823;28;20116;-75
2023/08/06 04:53:58;;;;;;;9.15;5.03;;;;;;;;;;5031550;28;20022;-75
2023/08/06 04:56:23;;;;;;;15.65;5.15;;;;;;;;;;5032613;28;20060;-75
2023/08/06 04:58:50;;;;;;;9.88;4.15;;;;;;;;;;5031997;28;20394;-75
2023/08/06 05:01:15;;;;;;;8.45;5.22;;;;;;;;;;5034450;28;20029;-75
2023/08/06 05:03:40;;;;;;;9.55;5.22;;;;;;;;;;5036488;28;20031;-75
2023/08/06 05:06:06;;;;;;;7.95;4.63;;;;;;;;;;5035006;28;20072;-76
2023/08/06 05:08:31;;;;;;;7.55;4.47;;;;;;;;;;5019191;28;20388;-76
2023/08/06 05:10:56;;;;;;;11.65;6.07;;;;;;;;;;5018857;28;20387;-76
2023/08/06 05:13:22;;;;;;;11.73;5.75;;;;;;;;;;5036230;28;20026;-76
2023/08/06 05:15:47;;;;;;;10.48;5.05;;;;;;;;;;5035024;28;20017;-76
2023/08/06 05:18:12;;;;;;;10.02;5.40;;;;;;;;;;5035202;28;20086;-76
2023/08/06 05:20:39;;;;;;;9.80;5.82;;;;;;;;;;5034541;28;20099;-76
2023/08/06 05:23:04;;;;;;;9.80;4.80;;;;;;;;;;5036203;28;20033;-76
2023/08/06 05:25:30;;;;;;;14.60;5.50;;;;;;;;;;5034870;28;20026;-76
2023/08/06 05:27:55;;;;;;;12.75;5.85;;;;;;;;;;5018968;28;20048;-76
2023/08/06 05:30:20;;;;;;;7.93;4.78;;;;;;;;;;5036080;28;20099;-76
2023/08/06 05:32:45;;;;;;;9.18;4.90;;;;;;;;;;5036078;28;20025;-76
2023/08/06 05:35:11;;;;;;;13.68;6.90;;;;;;;;;;5035435;28;20104;-77
2023/08/06 05:37:36;;;;;;;9.50;5.15;;;;;;;;;;5034720;28;20522;-77
2023/08/06 05:40:03;;;;;;;14.10;5.38;;;;;;;;;;5035925;28;20029;-76
2023/08/06 05:42:29;;;;;;;10.07;5.22;;;;;;;;;;5036177;28;20388;-76
2023/08/06 05:44:54;;;;;;;14.05;6.13;;;;;;;;;;5034063;28;20029;-76
2023/08/06 05:47:19;;;;;;;6.70;4.95;;;;;;;;;;5034631;28;20021;-77
2023/08/06 05:49:45;;;;;;;14.32;5.88;;;;;;;;;;5035752;28;20112;-77
2023/08/06 05:52:10;;;;;;;13.88;5.38;;;;;;;;;;5034544;28;20025;-76
2023/08/06 05:54:35;;;;;;;11.20;5.32;;;;;;;;;;5017788;28;20041;-76
2023/08/06 05:57:01;;;;;;;11.10;5.75;;;;;;;;;;5034408;28;20029;-77
2023/08/06 05:59:26;;;;;;;11.85;5.95;;;;;;;;;;5034111;28;20032;-76
2023/08/06 06:01:51;;;;;;;10.38;5.65;;;;;;;;;;5017645;28;20029;-76
2023/08/06 06:04:16;;;;;;;10.02;5.75;;;;;;;;;;5034219;28;20617;-76
2023/08/06 06:06:42;;;;;;;11.57;4.90;;;;;;;;;;5034077;28;20033;-76
2023/08/06 06:09:07;;;;;;;11.95;5.22;;;;;;;;;;5033843;28;20025;-76
2023/08/06 06:11:32;;;;;;;9.90;4.78;;;;;;;;;;5035010;28;20476;-77
2023/08/06 06:13:58;;;;;;;12.20;5.80;;;;;;;;;;5033671;28;20156;-76
2023/08/06 06:16:23;;;;;;;12.68;6.13;;;;;;;;;;5034459;28;20036;-76
2023/08/06 06:18:48;;;;;;;13.77;6.10;;;;;;;;;;5018510;28;20025;-76
2023/08/06 06:21:14;;;;;;;11.50;6.45;;;;;;;;;;5033762;28;20061;-77
2023/08/06 06:23:39;;;;;;;10.48;5.50;;;;;;;;;;5035428;28;20021;-76
2023/08/06 06:26:04;;;;;;;11.77;5.88;;;;;;;;;;5032931;28;20052;-76
2023/08/06 06:28:29;;;;;;;14.93;6.43;;;;;;;;;;5034132;28;20094;-77
2023/08/06 06:31:00;;;;;;;11.52;5.15;;;;;;;;;;5034061;28;20036;-77
2023/08/06 06:33:26;;;;;;;11.38;5.80;;;;;;;;;;5034695;28;20033;-77
2023/08/06 06:35:51;;;;;;;11.57;5.70;;;;;;;;;;5036088;28;20034;-79
2023/08/06 06:38:16;;;;;;;12.85;5.72;;;;;;;;;;5018786;28;20467;-78
2023/08/06 06:40:41;;;;;;;9.77;5.30;;;;;;;;;;5019297;28;20049;-78
2023/08/06 06:43:07;;;;;;;9.70;4.90;;;;;;;;;;5036052;28;20028;-77
2023/08/06 06:45:32;;;;;;;9.57;5.30;;;;;;;;;;5034649;28;20451;-77
2023/08/06 06:47:57;;;;;;;13.52;5.63;;;;;;;;;;5035872;28;20021;-77
2023/08/06 06:50:23;;;;;;;13.10;6.00;;;;;;;;;;5034534;28;20460;-75
2023/08/06 06:52:49;;;;;;;10.48;5.00;;;;;;;;;;5032170;28;20021;-77
2023/08/06 06:55:14;;;;;;;7.70;4.55;;;;;;;;;;5035211;28;20415;-78
2023/08/06 06:57:39;;;;;;;12.63;4.95;;;;;;;;;;5034627;28;20050;-77
2023/08/06 07:00:05;;;;;;;6.47;4.28;;;;;;;;;;5030367;28;20037;-77
2023/08/06 07:02:30;;;;;;;9.68;4.15;;;;;;;;;;5014670;28;20431;-77
2023/08/06 07:04:56;;;;;;;9.65;4.45;;;;;;;;;;5027970;28;20084;-77
2023/08/06 07:07:21;;;;;;;8.07;4.38;;;;;;;;;;5030047;28;20026;-77
2023/08/06 07:09:46;;;;;;;8.18;4.82;;;;;;;;;;5030154;28;20563;-76
2023/08/06 07:12:12;;;;;;;7.88;4.38;;;;;;;;;;5015381;28;20080;-78
2023/08/06 07:14:37;;;;;;;7.45;4.63;;;;;;;;;;5030024;28;20030;-77
2023/08/06 07:17:02;;;;;;;13.20;5.53;;;;;;;;;;5014315;28;20029;-77
2023/08/06 07:19:28;;;;;;;14.07;5.63;;;;;;;;;;5033591;28;20036;-77
2023/08/06 07:21:53;;;;;;;8.30;4.70;;;;;;;;;;5033545;28;20499;-77
2023/08/06 07:24:18;;;;;;;10.57;5.07;;;;;;;;;;5014166;28;20617;-77
2023/08/06 07:26:43;;;;;;;9.90;5.05;;;;;;;;;;5009011;28;20136;-77
2023/08/06 07:29:09;;;;;;;9.50;4.72;;;;;;;;;;5029039;28;20025;-77
2023/08/06 07:31:34;;;;;;;11.63;6.03;;;;;;;;;;5034497;28;20017;-77
2023/08/06 07:33:59;;;;;;;9.00;4.47;;;;;;;;;;5032908;28;20547;-77
2023/08/06 07:36:25;;;;;;;11.15;5.07;;;;;;;;;;5033317;28;20037;-77
2023/08/06 07:38:55;;;;;;;13.35;6.07;;;;;;;;;;5033435;28;20022;-79
2023/08/06 07:41:21;;;;;;;9.52;5.30;;;;;;;;;;5034295;28;20022;-77
2023/08/06 07:43:46;;;;;;;11.07;5.32;;;;;;;;;;5034794;28;20084;-78
2023/08/06 07:46:13;;;;;;;7.43;4.65;;;;;;;;;;5017731;28;20033;-77
2023/08/06 07:48:38;;;;;;;10.55;5.57;;;;;;;;;;5017606;28;20022;-78
2023/08/06 07:51:04;;;;;;;7.47;5.25;;;;;;;;;;5017443;28;20025;-78
2023/08/06 07:53:29;;;;;;;12.93;5.30;;;;;;;;;;5034212;28;20048;-78
2023/08/06 07:55:54;;;;;;;10.30;4.00;;;;;;;;;;5017968;28;20071;-78
2023/08/06 07:58:20;;;;;;;10.30;3.83;;;;;;;;;;5034607;28;20398;-78
2023/08/06 08:00:46;;;;;;;12.13;5.18;;;;;;;;;;5034603;28;20083;-78
2023/08/06 08:03:13;;;;;;;11.75;5.35;;;;;;;;;;5034268;28;20029;-78
2023/08/06 08:05:38;;;;;;;7.03;4.50;;;;;;;;;;5041176;23;20029;-78
2023/08/06 08:08:04;;;;;;;8.60;4.45;;;;;;;;;;5017824;28;20040;-78
2023/08/06 08:10:29;;;;;;;9.85;4.13;;;;;;;;;;5035378;28;20029;-78
2023/08/06 08:12:54;;;;;;;10.18;4.10;;;;;;;;;;5034317;28;20475;-78
2023/08/06 08:15:20;;;;;;;11.88;5.43;;;;;;;;;;5034337;28;20124;-78
2023/08/06 08:17:47;;;;;;;8.32;4.25;;;;;;;;;;5034057;28;20025;-78
2023/08/06 08:20:12;;;;;;;7.75;4.20;;;;;;;;;;5034276;28;20051;-78
2023/08/06 08:22:38;;;;;;;8.68;4.47;;;;;;;;;;5034748;28;20049;-78
2023/08/06 08:25:03;;;;;;;11.20;4.82;;;;;;;;;;5034108;28;20116;-78
2023/08/06 08:27:29;;;;;;;9.10;5.15;;;;;;;;;;5034915;28;20022;-78
2023/08/06 08:29:55;;;;;;;6.15;3.92;;;;;;;;;;5067741;28;20104;-78
2023/08/06 08:32:20;;;;;;;6.88;3.97;;;;;;;;;;5071117;28;20072;-78
2023/08/06 08:34:45;;;;;;;8.85;3.58;;;;;;;;;;5038196;28;20029;-78
2023/08/06 08:37:11;;;;;;;5.80;3.40;;;;;;;;;;5037480;28;20025;-78
2023/08/06 08:39:36;;;;;;;7.22;3.70;;;;;;;;;;5071343;28;20079;-79
2023/08/06 08:42:03;;;;;;;6.38;3.47;;;;;;;;;;5017877;28;20368;-79
2023/08/06 08:44:31;;;;;;;7.28;4.13;;;;;;;;;;5017935;28;20049;-78
2023/08/06 08:46:57;;;;;;;5.47;3.75;;;;;;;;;;5017263;28;20050;-77
2023/08/06 08:49:23;;;;;;;6.43;3.75;;;;;;;;;;5016540;28;20101;-77
2023/08/06 08:51:49;;;;;;;11.93;4.50;;;;;;;;;;5016328;28;20117;-77
2023/08/06 08:54:15;;;;;;;8.40;3.80;;;;;;;;;;5015865;28;20073;-76
2023/08/06 08:56:40;;;;;;;7.10;3.60;;;;;;;;;;5027481;28;20053;-76
2023/08/06 08:59:06;;;;;;;8.63;3.90;;;;;;;;;;5035804;28;20028;-77
2023/08/06 09:01:31;;;;;;;7.38;3.58;;;;;;;;;;5036070;28;20030;-76
2023/08/06 09:03:57;;;;;;;8.18;4.03;;;;;;;;;;5035337;28;20120;-78
2023/08/06 09:06:27;;;;;;;6.07;4.05;;;;;;;;;;5035502;28;20025;-76
2023/08/06 09:09:25;;;;;;;7.47;4.55;;;;;;;;;;5035570;28;20021;-77
2023/08/06 09:11:51;;;;;;;6.45;3.55;;;;;;;;;;5017727;28;20060;-78
2023/08/06 09:14:17;;;;;;;8.52;4.20;;;;;;;;;;5031567;28;20061;-77
2023/08/06 09:16:43;;;;;;;7.22;4.15;;;;;;;;;;5033657;28;20049;-76
2023/08/06 09:19:12;;;;;;;9.00;4.07;;;;;;;;;;5035902;28;20072;-76
2023/08/06 09:21:42;;;;;;;12.50;3.60;;;;;;;;;;5018705;28;20021;-77
2023/08/06 09:24:11;;;;;;;6.55;4.15;;;;;;;;;;5031527;28;20048;-77
2023/08/06 09:26:38;;;;;;;11.00;4.10;;;;;;;;;;5031847;28;20025;-77
2023/08/06 09:29:07;;;;;;;7.40;4.05;;;;;;;;;;4999497;28;20028;-76
2023/08/06 09:31:43;;;;;;;6.80;4.13;;;;;;;;;;5024767;28;20101;-77
2023/08/06 09:34:15;;;;;;;5.70;3.70;;;;;;;;;;5034137;28;20029;-77
2023/08/06 09:36:41;;;;;;;6.30;3.95;;;;;;;;;;5030678;28;20372;-77
2023/08/06 09:39:15;;;;;;;5.40;4.00;;;;;;;;;;5016603;28;20053;-77
2023/08/06 09:41:40;;;;;;;6.00;3.63;;;;;;;;;;5015322;28;20144;-77
2023/08/06 09:44:15;;;;;;;5.97;4.03;;;;;;;;;;5002004;28;20053;-77
2023/08/06 09:46:41;;;;;;;10.10;4.45;;;;;;;;;;5034040;28;20033;-76
2023/08/06 09:49:08;;;;;;;6.47;3.60;;;;;;;;;;5034306;28;20025;-77
2023/08/06 09:51:34;;;;;;;5.50;3.65;;;;;;;;;;5018591;28;20024;-77
2023/08/06 09:54:01;;;;;;;6.75;3.65;;;;;;;;;;5034762;28;20032;-77
2023/08/06 09:56:26;;;;;;;7.07;3.35;;;;;;;;;;5034299;28;20373;-77
2023/08/06 09:58:52;;;;;;;8.35;4.28;;;;;;;;;;5036248;28;20100;-76
2023/08/06 10:01:19;;;;;;;6.18;3.53;;;;;;;;;;5035035;28;20112;-77
2023/08/06 10:03:44;;;;;;;8.10;4.25;;;;;;;;;;5034880;28;20025;-77
2023/08/06 10:06:10;;;;;;;7.30;3.90;;;;;;;;;;5041607;23;20149;-77
2023/08/06 10:08:35;;;;;;;11.35;4.55;;;;;;;;;;5017811;28;20029;-77
2023/08/06 10:11:03;;;;;;;11.23;4.65;;;;;;;;;;5034274;28;20029;-77
2023/08/06 10:13:30;;;;;;;9.77;4.15;;;;;;;;;;5034379;28;20029;-77
2023/08/06 10:15:55;;;;;;;7.50;4.22;;;;;;;;;;5017631;28;20112;-77
2023/08/06 10:18:22;;;;;;;5.38;3.50;;;;;;;;;;5016215;28;20102;-77
2023/08/06 10:20:47;;;;;;;7.18;4.75;;;;;;;;;;5014670;28;20022;-77
2023/08/06 10:23:14;;;;;;;6.97;3.85;;;;;;;;;;5014564;28;20029;-77
2023/08/06 10:25:42;;;;;;;9.27;3.60;;;;;;;;;;5014344;28;20029;-77
2023/08/06 10:28:13;;;;;;;8.10;3.50;;;;;;;;;;5031313;23;20473;-78
2023/08/06 10:30:44;;;;;;;5.93;3.70;;;;;;;;;;5029128;28;20167;-78
2023/08/06 10:33:09;;;;;;;;;;;;;;;;;;5037283;28;20495;-78
2023/08/06 10:35:36;;;;;;;4.80;3.83;;;;;;;;;;5037012;28;19908;-78
2023/08/06 10:38:10;;;;;;;8.35;4.90;;;;;;;;;;5037440;28;20025;-78
2023/08/06 10:40:36;;;;;;;8.45;4.50;;;;;;;;;;5037366;28;20029;-78
2023/08/06 10:43:03;;;;;;;7.65;3.95;;;;;;;;;;5020232;28;20022;-77
2023/08/06 10:45:30;;;;;;;6.30;3.88;;;;;;;;;;5037638;28;20029;-78
2023/08/06 10:47:57;;;;;;;8.80;3.88;;;;;;;;;;5038188;28;20079;-78
2023/08/06 10:50:22;;;;;;;8.23;3.83;;;;;;;;;;5037934;28;20053;-77
2023/08/06 10:52:48;;;;;;;5.75;3.95;;;;;;;;;;5037832;28;20036;-78
2023/08/06 10:55:14;;;;;;;7.05;4.32;;;;;;;;;;5038835;28;20022;-78
2023/08/06 10:57:40;;;;;;;9.82;4.38;;;;;;;;;;5021030;28;20029;-78
2023/08/06 11:00:07;;;;;;;8.98;4.38;;;;;;;;;;5034133;28;20021;-77
2023/08/06 11:02:38;;;;;;;6.63;4.10;;;;;;;;;;5035708;28;20045;-78
2023/08/06 11:05:10;;;;;;;8.52;4.43;;;;;;;;;;5036469;28;20033;-78
2023/08/06 11:07:36;;;;;;;9.68;4.15;;;;;;;;;;5018125;28;20041;-78
2023/08/06 11:10:03;;;;;;;7.70;4.90;;;;;;;;;;5018410;28;20157;-77
2023/08/06 11:12:29;;;;;;;9.55;4.20;;;;;;;;;;5034652;28;20092;-77
2023/08/06 11:14:55;;;;;;;6.40;4.13;;;;;;;;;;5033632;28;20068;-77
2023/08/06 11:17:21;;;;;;;9.75;4.20;;;;;;;;;;5033666;28;20025;-77
2023/08/06 11:19:46;;;;;;;8.65;4.47;;;;;;;;;;5033637;28;20067;-77
2023/08/06 11:22:11;;;;;;;6.65;4.50;;;;;;;;;;5033669;28;20079;-78
2023/08/06 11:24:37;;;;;;;6.18;3.78;;;;;;;;;;5033799;28;20022;-76
2023/08/06 11:27:11;;;;;;;6.05;3.28;;;;;;;;;;5015747;28;20414;-77
2023/08/06 11:29:37;;;;;;;6.97;4.30;;;;;;;;;;5016603;28;20025;-77
2023/08/06 11:32:04;;;;;;;9.70;4.18;;;;;;;;;;5033878;28;20014;-76
2023/08/06 11:34:29;;;;;;;6.80;3.88;;;;;;;;;;5032772;28;20044;-76
2023/08/06 11:36:57;;;;;;;6.88;3.08;;;;;;;;;;5032057;28;20364;-76
2023/08/06 11:39:22;;;;;;;8.35;3.63;;;;;;;;;;5034504;28;20446;-77
2023/08/06 11:41:48;;;;;;;5.68;3.22;;;;;;;;;;5032870;28;20087;-77
2023/08/06 11:44:13;;;;;;;6.97;3.92;;;;;;;;;;5034057;28;20025;-76
2023/08/06 11:46:55;;;;;;;7.93;4.03;;;;;;;;;;5017108;28;20109;-77
2023/08/06 11:49:46;;;;;;;6.88;3.40;;;;;;;;;;5033105;28;20428;-77
2023/08/06 11:52:20;;;;;;;6.28;3.55;;;;;;;;;;5034258;28;20071;-77
2023/08/06 11:54:49;;;;;;;9.38;3.63;;;;;;;;;;5032818;28;20075;-76
2023/08/06 11:57:15;;;;;;;5.72;3.35;;;;;;;;;;5016415;28;20033;-77
2023/08/06 11:59:41;;;;;;;7.18;3.83;;;;;;;;;;5034574;28;20026;-77
2023/08/06 12:02:10;;;;;;;9.73;4.22;;;;;;;;;;5032041;28;20524;-77
2023/08/06 12:05:01;;;;;;;5.95;3.83;;;;;;;;;;5032803;28;20029;-76
2023/08/06 12:07:31;;;;;;;7.70;3.95;;;;;;;;;;5032487;28;20032;-78
2023/08/06 12:09:57;;;;;;;9.60;4.15;;;;;;;;;;5032805;28;20035;-77
2023/08/06 12:12:23;;;;;;;5.57;3.63;;;;;;;;;;5032022;28;20014;-77
2023/08/06 12:14:48;;;;;;;6.45;3.85;;;;;;;;;;5032601;28;20041;-76
2023/08/06 12:17:13;;;;;;;8.73;4.07;;;;;;;;;;5033580;28;20025;-77
2023/08/06 12:19:39;;;;;;;5.47;3.33;;;;;;;;;;5033588;28;20116;-77
2023/08/06 12:22:04;;;;;;;6.22;3.95;;;;;;;;;;5032696;28;20079;-77
2023/08/06 12:24:31;;;;;;;6.53;3.58;;;;;;;;;;5015211;28;20021;-77
2023/08/06 12:26:59;;;;;;;7.80;4.32;;;;;;;;;;5033534;28;20056;-76
2023/08/06 12:29:25;;;;;;;5.50;3.67;;;;;;;;;;5032214;28;20029;-77
2023/08/06 12:31:50;;;;;;;6.88;3.70;;;;;;;;;;5032215;28;20095;-77
2023/08/06 12:34:16;;;;;;;4.93;3.50;;;;;;;;;;5033269;28;20026;-77
2023/08/06 12:36:41;;;;;;;6.00;3.22;;;;;;;;;;5032714;28;20072;-77
2023/08/06 12:39:07;;;;;;;8.55;3.40;;;;;;;;;;5032044;28;20168;-77
2023/08/06 12:41:32;;;;;;;7.40;3.70;;;;;;;;;;5032044;28;20026;-77
2023/08/06 12:44:00;;;;;;;5.78;3.60;;;;;;;;;;5015546;28;20117;-77
2023/08/06 12:46:25;;;;;;;8.55;3.83;;;;;;;;;;5032730;28;20017;-78
2023/08/06 12:48:51;;;;;;;7.93;3.58;;;;;;;;;;5034867;28;20037;-78
2023/08/06 12:51:16;;;;;;;7.25;3.38;;;;;;;;;;5035470;28;20022;-78
2023/08/06 12:53:42;;;;;;;6.18;3.10;;;;;;;;;;5036551;28;20029;-77
2023/08/06 12:56:07;;;;;;;7.47;3.20;;;;;;;;;;5036219;28;20025;-78
2023/08/06 12:58:32;;;;;;;5.30;3.22;;;;;;;;;;5035186;28;20490;-78
2023/08/06 13:00:57;;;;;;;7.60;3.75;;;;;;;;;;5037660;28;20032;-78
2023/08/06 13:03:23;;;;;;;5.63;3.45;;;;;;;;;;5036683;28;20479;-78
2023/08/06 13:05:48;;;;;;;4.97;3.20;;;;;;;;;;5036455;28;20106;-78
2023/08/06 13:08:14;;;;;;;7.22;3.50;;;;;;;;;;5037666;28;20051;-78
2023/08/06 13:10:39;;;;;;;5.70;3.20;;;;;;;;;;5037071;28;20026;-78
2023/08/06 13:13:05;;;;;;;8.40;3.63;;;;;;;;;;5021199;28;20060;-78
2023/08/06 13:15:32;;;;;;;11.60;3.50;;;;;;;;;;5036901;28;20083;-78
2023/08/06 13:17:57;;;;;;;7.50;3.97;;;;;;;;;;5019846;28;20538;-78
2023/08/06 13:20:23;;;;;;;7.90;3.85;;;;;;;;;;5036494;28;20025;-78
2023/08/06 13:22:50;;;;;;;9.02;3.00;;;;;;;;;;5041920;28;20450;-78
2023/08/06 13:25:16;;;;;;;6.18;3.80;;;;;;;;;;5043378;28;20025;-78
2023/08/06 13:27:43;;;;;;;6.63;3.33;;;;;;;;;;5039484;28;20123;-78
2023/08/06 13:30:12;;;;;;;8.07;3.35;;;;;;;;;;5040467;28;20021;-78
2023/08/06 13:32:37;;;;;;;7.80;4.07;;;;;;;;;;5040288;28;20029;-78
2023/08/06 13:35:04;;;;;;;5.90;3.55;;;;;;;;;;5040219;28;20029;-77
2023/08/06 13:37:29;;;;;;;5.65;3.30;;;;;;;;;;5038504;28;20083;-78
2023/08/06 13:39:55;;;;;;;5.38;3.30;;;;;;;;;;5040757;28;20029;-78
2023/08/06 13:42:20;;;;;;;6.20;3.60;;;;;;;;;;5039442;28;20034;-78
2023/08/06 13:44:45;;;;;;;7.05;3.88;;;;;;;;;;5039213;28;20036;-78
2023/08/06 13:47:11;;;;;;;6.50;3.65;;;;;;;;;;5038624;28;20084;-77
2023/08/06 13:49:36;;;;;;;9.77;4.10;;;;;;;;;;5038663;28;20034;-78
2023/08/06 13:52:01;;;;;;;7.25;3.83;;;;;;;;;;5040317;28;20021;-78
2023/08/06 13:54:26;;;;;;;7.35;3.80;;;;;;;;;;5037751;28;20060;-78
2023/08/06 13:56:53;;;;;;;7.97;3.92;;;;;;;;;;5038950;28;20059;-78
2023/08/06 13:59:19;;;;;;;10.00;4.18;;;;;;;;;;5039261;28;20028;-78
2023/08/06 14:01:45;;;;;;;5.53;2.88;;;;;;;;;;5038480;28;20399;-78
2023/08/06 14:04:10;;;;;;;5.72;3.42;;;;;;;;;;5039412;28;20028;-77
2023/08/06 14:06:35;;;;;;;5.78;2.70;;;;;;;;;;5039734;28;20372;-78
2023/08/06 14:09:01;;;;;;;4.78;3.00;;;;;;;;;;5022133;28;20063;-78
2023/08/06 14:11:26;;;;;;;7.47;3.38;;;;;;;;;;5039143;28;20035;-78
2023/08/06 14:13:51;;;;;;;5.35;2.88;;;;;;;;;;5040863;28;20025;-78
2023/08/06 14:16:17;;;;;;;6.60;3.58;;;;;;;;;;5038746;28;20060;-78
2023/08/06 14:18:42;;;;;;;7.75;3.53;;;;;;;;;;5039243;28;20026;-77
2023/08/06 14:21:08;;;;;;;5.50;3.00;;;;;;;;;;5039594;28;20041;-77
2023/08/06 14:23:33;;;;;;;6.65;4.15;;;;;;;;;;5020032;28;20053;-77
2023/08/06 14:25:58;;;;;;;5.07;3.05;;;;;;;;;;5035407;28;20033;-78
2023/08/06 14:28:24;;;;;;;5.65;3.05;;;;;;;;;;5037190;28;20033;-78
2023/08/06 14:30:49;;;;;;;5.20;3.15;;;;;;;;;;5035131;28;20022;-78
2023/08/06 14:33:14;;;;;;;4.93;3.05;;;;;;;;;;5035474;28;20067;-77
2023/08/06 14:35:39;;;;;;;6.18;3.60;;;;;;;;;;5035678;28;20104;-77
2023/08/06 14:38:07;;;;;;;4.15;3.13;;;;;;;;;;5036124;28;20026;-77